createdAt,value
2022-09-12T00:04:23.980Z,20
2022-09-12T00:09:23.613Z,20
2022-09-12T00:14:23.601Z,17.8
2022-09-12T00:25:08.238Z,17.8
2022-09-12T00:29:48.357Z,14.5
2022-09-12T00:34:24.636Z,14.4
2022-09-12T00:39:23.806Z,14.4
2022-09-12T00:44:23.738Z,14.1
2022-09-12T00:49:23.706Z,13.3
2022-09-12T00:54:23.670Z,13.3
2022-09-12T00:59:23.677Z,12.9
2022-09-12T01:04:24.814Z,12.9
2022-09-12T01:09:23.682Z,12.9
2022-09-12T01:14:23.702Z,12.9
2022-09-12T01:19:23.636Z,13.9
2022-09-12T01:24:23.638Z,13.9
2022-09-12T01:29:23.671Z,13.9
2022-09-12T01:34:23.697Z,14.2
2022-09-12T01:39:23.673Z,13.9
2022-09-12T01:44:23.707Z,14.9
2022-09-12T01:49:23.645Z,15.2
2022-09-12T01:54:23.672Z,13.7
2022-09-12T01:59:23.630Z,14.8
2022-09-12T02:04:23.657Z,15.2
2022-09-12T02:09:23.684Z,15.1
2022-09-12T02:14:23.694Z,15.2
2022-09-12T02:19:24.246Z,15.2
2022-09-12T02:24:23.979Z,15.4
2022-09-12T02:29:24.149Z,16.4
2022-09-12T02:34:23.669Z,16.4
2022-09-12T02:39:23.651Z,16.5
2022-09-12T02:44:23.676Z,16.7
2022-09-12T02:49:23.731Z,16.5
2022-09-12T02:54:23.706Z,16.5
2022-09-12T02:59:25.154Z,16.5
2022-09-12T03:04:23.666Z,16.4
2022-09-12T03:09:23.668Z,16.5
2022-09-12T03:14:23.714Z,16.5
2022-09-12T03:19:24.181Z,16.4
2022-09-12T03:24:23.691Z,16.5
2022-09-12T03:29:23.908Z,16.5
2022-09-12T03:34:23.666Z,16.7
2022-09-12T03:39:23.686Z,16.7
2022-09-12T03:44:23.735Z,16.7
2022-09-12T03:49:23.951Z,14.7
2022-09-12T03:54:23.935Z,16.7
2022-09-12T03:59:23.657Z,14.4
2022-09-12T04:04:23.702Z,14.2
2022-09-12T04:09:23.703Z,14.1
2022-09-12T04:14:23.704Z,13.9
2022-09-12T04:19:24.366Z,13.8
2022-09-12T04:24:23.742Z,13.9
2022-09-12T04:29:23.713Z,13.9
2022-09-12T04:34:23.688Z,14.2
2022-09-12T04:39:23.720Z,16.5
2022-09-12T04:44:23.707Z,16.5
2022-09-12T04:49:23.767Z,16.5
2022-09-12T04:54:23.680Z,16.5
2022-09-12T04:59:23.696Z,15
2022-09-12T05:04:23.697Z,14.9
2022-09-12T05:09:23.729Z,14.7
2022-09-12T05:14:23.739Z,14.7
2022-09-12T05:19:23.757Z,14.4
2022-09-12T05:24:23.734Z,14
2022-09-12T05:29:24.773Z,14
2022-09-12T05:34:23.699Z,14
2022-09-12T05:39:23.729Z,14.7
2022-09-12T05:44:23.762Z,15
2022-09-12T05:49:24.248Z,14
2022-09-12T05:54:24.898Z,15
2022-09-12T05:59:23.696Z,16.5
2022-09-12T06:04:23.730Z,16.5
2022-09-12T06:09:23.726Z,16.5
2022-09-12T06:14:23.700Z,16.5
2022-09-12T06:19:23.762Z,16.5
2022-09-12T06:24:23.732Z,17.8
2022-09-12T06:29:23.761Z,17.8
2022-09-12T06:34:23.747Z,17.8
2022-09-12T06:39:23.773Z,18.4
2022-09-12T06:44:23.756Z,19.3
2022-09-12T06:49:23.722Z,19.3
2022-09-12T06:54:23.749Z,19.5
2022-09-12T06:59:23.768Z,19.5
2022-09-12T07:04:23.833Z,20.7
2022-09-12T07:09:23.785Z,20.7
2022-09-12T07:14:23.717Z,20.7
2022-09-12T07:29:54.601Z,23.3
2022-09-12T07:34:54.614Z,22.5
2022-09-12T07:39:54.958Z,23.3
2022-09-12T07:44:54.626Z,23.45
2022-09-12T07:49:54.654Z,23.6
2022-09-12T07:54:54.583Z,23.45
2022-09-12T07:59:54.700Z,23.6
2022-09-12T08:04:54.595Z,23.8
2022-09-12T08:09:54.626Z,23.8
2022-09-12T08:14:55.569Z,23.8
2022-09-12T08:19:54.616Z,21.9
2022-09-12T08:24:56.749Z,21.3
2022-09-12T08:29:54.644Z,21.3
2022-09-12T08:34:54.672Z,19.4
2022-09-12T08:39:54.689Z,19.1
2022-09-12T08:44:54.636Z,18.8
2022-09-12T08:49:54.723Z,17.9
2022-09-12T08:54:54.864Z,17.9
2022-09-12T08:59:54.881Z,17
2022-09-12T09:04:54.598Z,16
2022-09-12T09:09:54.879Z,16
2022-09-12T09:19:54.755Z,12.1
2022-09-12T09:24:54.701Z,12
2022-09-12T09:29:54.730Z,10.7
2022-09-12T09:34:54.625Z,9.8
2022-09-12T09:39:55.270Z,9.4
2022-09-12T09:44:54.628Z,7.7
2022-09-12T09:49:54.873Z,7.6
2022-09-12T09:54:54.907Z,7.4
2022-09-12T09:59:54.716Z,7.3
2022-09-12T10:04:54.652Z,6.9
2022-09-12T10:09:54.667Z,6.9
2022-09-12T10:14:54.690Z,7.3
2022-09-12T10:20:10.854Z,6.8
2022-09-12T10:24:54.757Z,6.7
2022-09-12T10:29:54.636Z,6.8
2022-09-12T10:34:54.675Z,7.2
2022-09-12T10:39:55.044Z,7.3
2022-09-12T10:44:54.668Z,7.2
2022-09-12T10:49:54.666Z,6.8
2022-09-12T10:54:54.665Z,6.6
2022-09-12T10:59:54.667Z,7.2
2022-09-12T11:04:54.671Z,6.8
2022-09-12T11:09:54.864Z,6.6
2022-09-12T11:14:54.637Z,6.6
2022-09-12T11:19:54.682Z,6.8
2022-09-12T11:24:55.334Z,6.8
2022-09-12T11:29:54.715Z,7.5
2022-09-12T11:34:54.691Z,7.5
2022-09-12T11:39:57.690Z,7.5
2022-09-12T11:44:54.933Z,8
2022-09-12T11:49:54.683Z,8
2022-09-12T11:54:54.653Z,8
2022-09-12T11:59:54.735Z,7.5
2022-09-12T12:04:54.676Z,6.7
2022-09-12T12:09:54.672Z,6.4
2022-09-12T12:14:54.730Z,5.8
2022-09-12T12:19:54.698Z,5.4
2022-09-12T12:24:54.785Z,5.3
2022-09-12T12:29:55.071Z,5.3
2022-09-12T12:34:54.671Z,4.8
2022-09-12T12:39:54.790Z,5.3
2022-09-12T12:44:54.686Z,5.3
2022-09-12T12:49:54.958Z,5.3
2022-09-12T12:54:54.714Z,5.6
2022-09-12T12:59:54.728Z,5.6
2022-09-12T13:04:54.721Z,5.6
2022-09-12T13:09:54.693Z,5.7
2022-09-12T13:14:54.718Z,5.6
2022-09-12T13:20:17.177Z,5.5
2022-09-12T13:24:54.792Z,5.5
2022-09-12T13:29:54.800Z,5.2
2022-09-12T13:34:54.725Z,5.5
2022-09-12T13:39:54.758Z,5.5
2022-09-12T13:44:55.937Z,5.5
2022-09-12T13:49:54.754Z,6.4
2022-09-12T13:54:54.753Z,6.4
2022-09-12T13:59:54.735Z,6.4
2022-09-12T14:04:54.706Z,6.6
2022-09-12T14:09:54.761Z,6.6
2022-09-12T14:14:55.776Z,6.6
2022-09-12T14:19:54.755Z,6.5
2022-09-12T14:24:55.183Z,6.3
2022-09-12T14:29:54.816Z,6.5
2022-09-12T14:34:54.700Z,6.5
2022-09-12T14:39:54.788Z,6.5
2022-09-12T14:44:54.847Z,6.5
2022-09-12T14:49:54.730Z,6.3
2022-09-12T14:54:54.793Z,6
2022-09-12T14:59:54.764Z,5.8
2022-09-12T15:04:54.765Z,5.8
2022-09-12T15:09:54.759Z,5.8
2022-09-12T15:14:54.738Z,5.8
2022-09-12T15:19:54.792Z,5.8
2022-09-12T15:24:54.877Z,5.4
2022-09-12T15:29:54.799Z,5.4
2022-09-12T15:34:54.780Z,5.4
2022-09-12T15:39:54.811Z,5.4
2022-09-12T15:44:55.223Z,5.4
2022-09-12T15:49:55.001Z,5.4
2022-09-12T15:54:54.784Z,5.5
2022-09-12T15:59:54.746Z,5.5
2022-09-12T16:04:54.851Z,5.5
2022-09-12T16:09:54.788Z,5.6
2022-09-12T16:14:54.745Z,5.7
2022-09-12T16:19:55.013Z,5.7
2022-09-12T16:24:54.778Z,5.7
2022-09-12T16:29:54.799Z,5.5
2022-09-12T16:34:54.784Z,5.5
2022-09-12T16:39:54.803Z,5.7
2022-09-12T16:44:54.809Z,6.2
2022-09-12T16:49:54.800Z,6.2
2022-09-12T16:54:54.786Z,6.3
2022-09-12T16:59:54.842Z,6.3
2022-09-12T17:04:54.782Z,6.5
2022-09-12T17:09:54.802Z,6.8
2022-09-12T17:14:54.820Z,6.9
2022-09-12T17:19:54.801Z,7.3
2022-09-12T17:24:55.100Z,7.5
2022-09-12T17:29:54.813Z,7.5
2022-09-12T17:34:54.780Z,7.5
2022-09-12T17:39:54.833Z,7.5
2022-09-12T17:44:54.786Z,7.5
2022-09-12T17:50:09.351Z,7.7
2022-09-12T17:54:54.826Z,8.1
2022-09-12T17:59:54.892Z,8.5
2022-09-12T18:04:54.862Z,8.5
2022-09-12T18:09:54.827Z,8.5
2022-09-12T18:14:54.804Z,8.5
2022-09-12T18:19:54.788Z,8.5
2022-09-12T18:24:54.890Z,8.5
2022-09-12T18:30:17.479Z,8.7
2022-09-12T18:34:55.055Z,8.6
2022-09-12T18:39:55.197Z,8.7
2022-09-12T18:44:54.828Z,9.2
2022-09-12T18:49:55.076Z,9.3
2022-09-12T18:54:54.807Z,9.3
2022-09-12T18:59:54.849Z,9.4
2022-09-12T19:04:54.829Z,9.4
2022-09-12T19:09:54.869Z,10.4
2022-09-12T19:14:54.835Z,10.7
2022-09-12T19:19:54.896Z,10.4
2022-09-12T19:24:59.450Z,10.4
2022-09-12T19:29:54.893Z,10.7
2022-09-12T19:34:54.877Z,11
2022-09-12T19:39:55.922Z,11
2022-09-12T19:44:55.962Z,10.6
2022-09-12T19:49:55.919Z,10.6
2022-09-12T19:54:55.889Z,11.3
2022-09-12T19:59:55.939Z,11.3
2022-09-12T20:04:55.963Z,10.6
2022-09-12T20:09:55.918Z,10.6
2022-09-12T20:14:55.976Z,11.3
2022-09-12T20:19:55.892Z,11.3
2022-09-12T20:24:56.084Z,11.3
2022-09-12T20:29:55.918Z,10.8
2022-09-12T20:34:56.144Z,11.3
2022-09-12T20:39:55.996Z,12
2022-09-12T20:44:56.005Z,11.3
2022-09-12T20:49:55.940Z,11.2
2022-09-12T20:54:55.929Z,11.3
2022-09-12T20:59:56.941Z,11.6
2022-09-12T21:04:55.946Z,11.6
2022-09-12T21:09:55.920Z,11.5
2022-09-12T21:14:58.080Z,11.5
2022-09-12T21:19:55.849Z,11.6
2022-09-12T21:24:56.251Z,11.7
2022-09-12T21:29:55.934Z,12.6
2022-09-12T21:34:55.875Z,12.8
2022-09-12T21:39:55.882Z,13
2022-09-12T21:44:56.379Z,13
2022-09-12T21:49:56.122Z,14.1
2022-09-12T21:54:55.912Z,14.1
2022-09-12T21:59:55.918Z,13.6
2022-09-12T22:04:55.924Z,13
2022-09-12T22:09:55.913Z,13.3
2022-09-12T22:15:09.066Z,13.1
2022-09-12T22:19:55.943Z,13.3
2022-09-12T22:24:55.940Z,13.3
2022-09-12T22:29:55.941Z,13.3
2022-09-12T22:34:55.933Z,13.9
2022-09-12T22:39:55.996Z,14.1
2022-09-12T22:44:56.147Z,14.1
2022-09-12T22:49:55.939Z,14.9
2022-09-12T22:54:55.930Z,14.9
2022-09-12T22:59:56.061Z,14.9
2022-09-12T23:04:55.940Z,13.6
2022-09-12T23:09:55.996Z,13.1
2022-09-12T23:14:55.917Z,13.1
2022-09-12T23:19:55.907Z,13.1
2022-09-12T23:24:56.051Z,12.9
2022-09-12T23:29:55.947Z,13.1
2022-09-12T23:34:55.920Z,13.2
2022-09-12T23:39:55.980Z,13.2
2022-09-12T23:44:56.152Z,13.2
2022-09-12T23:49:56.005Z,13.2
2022-09-12T23:54:55.891Z,13.6
2022-09-12T23:59:55.921Z,14.3
